createdAt,value
2018-09-08T00:03:15.090Z,14.60
2018-09-08T00:08:19.251Z,14.50
2018-09-08T00:13:23.413Z,14.50
2018-09-08T00:18:32.715Z,14.50
2018-09-08T00:23:42.161Z,14.40
2018-09-08T00:28:49.825Z,14.40
2018-09-08T00:33:53.997Z,14.50
2018-09-08T00:38:58.144Z,14.40
2018-09-08T00:44:02.385Z,14.40
2018-09-08T00:49:06.578Z,14.30
2018-09-08T00:54:10.731Z,14.10
2018-09-08T00:59:14.949Z,14.20
2018-09-08T01:04:19.186Z,14.00
2018-09-08T01:09:23.332Z,14.10
2018-09-08T01:14:27.571Z,14.20
2018-09-08T01:19:31.713Z,14.10
2018-09-08T01:24:35.879Z,14.10
2018-09-08T01:29:40.070Z,13.90
2018-09-08T01:34:44.249Z,13.90
2018-09-08T01:39:48.382Z,13.90
2018-09-08T01:44:52.588Z,14.00
2018-09-08T01:49:56.832Z,14.00
2018-09-08T01:55:00.961Z,14.00
2018-09-08T02:00:06.460Z,13.80
2018-09-08T02:05:10.627Z,13.50
2018-09-08T02:10:14.783Z,13.80
2018-09-08T02:15:18.971Z,13.90
2018-09-08T02:20:23.168Z,14.00
2018-09-08T02:25:27.375Z,13.80
2018-09-08T02:30:31.652Z,13.90
2018-09-08T02:35:36.732Z,13.80
2018-09-08T02:40:40.858Z,13.90
2018-09-08T02:45:45.025Z,13.90
2018-09-08T02:50:47.996Z,13.80
2018-09-08T02:55:51.009Z,13.80
2018-09-08T03:00:54.025Z,13.80
2018-09-08T03:05:57.009Z,13.70
2018-09-08T03:11:00.013Z,13.80
2018-09-08T03:16:03.020Z,13.70
2018-09-08T03:21:05.967Z,13.60
2018-09-08T03:26:08.933Z,13.70
2018-09-08T03:31:11.903Z,13.60
2018-09-08T03:36:14.912Z,13.70
2018-09-08T03:41:17.921Z,13.60
2018-09-08T03:46:20.996Z,13.50
2018-09-08T03:51:24.132Z,13.50
2018-09-08T03:56:27.245Z,13.60
2018-09-08T04:01:30.250Z,13.50
2018-09-08T04:06:34.429Z,13.60
2018-09-08T04:11:38.837Z,13.60
2018-09-08T04:16:43.028Z,13.60
2018-09-08T04:21:47.240Z,13.60
2018-09-08T04:26:51.858Z,13.50
2018-09-08T04:31:56.013Z,13.60
2018-09-08T04:37:00.231Z,13.40
2018-09-08T04:42:04.390Z,13.50
2018-09-08T04:47:08.567Z,13.50
2018-09-08T04:52:12.715Z,13.40
2018-09-08T04:57:16.873Z,13.40
2018-09-08T05:02:21.115Z,13.40
2018-09-08T05:07:25.244Z,13.20
2018-09-08T05:12:29.473Z,13.10
2018-09-08T05:17:33.678Z,13.30
2018-09-08T05:22:37.902Z,13.40
2018-09-08T05:27:42.048Z,13.30
2018-09-08T05:32:46.296Z,13.80
2018-09-08T05:37:50.531Z,13.80
2018-09-08T05:42:54.776Z,13.80
2018-09-08T05:47:58.997Z,13.80
2018-09-08T05:53:03.289Z,14.00
2018-09-08T05:58:07.466Z,14.00
2018-09-08T06:03:11.657Z,14.00
2018-09-08T06:08:15.798Z,14.00
2018-09-08T06:13:20.019Z,14.00
2018-09-08T06:18:24.224Z,13.90
2018-09-08T06:23:28.332Z,14.00
2018-09-08T06:28:32.572Z,14.10
2018-09-08T06:33:37.103Z,14.00
2018-09-08T06:38:41.273Z,14.00
2018-09-08T06:43:45.468Z,14.10
2018-09-08T06:48:49.646Z,14.10
2018-09-08T06:53:53.903Z,14.20
2018-09-08T06:58:58.025Z,14.10
2018-09-08T07:04:02.260Z,14.20
2018-09-08T07:09:08.855Z,14.10
2018-09-08T07:14:12.988Z,14.30
2018-09-08T07:19:17.161Z,14.30
2018-09-08T07:24:21.368Z,14.40
2018-09-08T07:29:25.599Z,14.40
2018-09-08T07:34:29.798Z,14.60
2018-09-08T07:39:34.020Z,14.60
2018-09-08T07:44:38.239Z,14.70
2018-09-08T07:49:42.475Z,14.70
2018-09-08T07:54:46.623Z,14.80
2018-09-08T07:59:50.813Z,14.90
2018-09-08T08:04:54.994Z,15.10
2018-09-08T08:09:59.183Z,15.10
2018-09-08T08:15:03.321Z,15.10
2018-09-08T08:20:07.474Z,15.20
2018-09-08T08:25:11.622Z,15.30
2018-09-08T08:30:15.804Z,15.30
2018-09-08T08:35:20.041Z,15.40
2018-09-08T08:40:24.174Z,15.50
2018-09-08T08:45:28.380Z,15.80
2018-09-08T08:50:43.745Z,16.00
2018-09-08T08:55:47.938Z,16.30
2018-09-08T09:00:52.186Z,16.30
2018-09-08T09:05:56.424Z,16.60
2018-09-08T09:11:00.614Z,16.70
2018-09-08T09:16:04.790Z,17.20
2018-09-08T09:21:20.057Z,17.50
2018-09-08T09:26:24.290Z,17.10
2018-09-08T09:31:28.528Z,17.70
2018-09-08T09:36:32.892Z,17.50
2018-09-08T09:41:37.082Z,17.70
2018-09-08T09:46:41.814Z,17.90
2018-09-08T09:51:45.988Z,18.00
2018-09-08T09:56:50.243Z,18.30
2018-09-08T10:01:59.712Z,17.70
2018-09-08T10:07:08.175Z,18.50
2018-09-08T10:12:12.480Z,18.10
2018-09-08T10:17:16.584Z,18.90
2018-09-08T10:22:20.765Z,19.10
2018-09-08T10:27:24.995Z,19.40
2018-09-08T10:32:29.282Z,19.60
2018-09-08T10:37:33.755Z,20.10
2018-09-08T10:42:37.961Z,20.60
2018-09-08T10:47:42.159Z,19.50
2018-09-08T10:52:46.929Z,19.10
2018-09-08T10:57:51.106Z,20.70
2018-09-08T11:02:55.522Z,20.30
2018-09-08T11:07:59.680Z,20.10
2018-09-08T11:13:03.875Z,21.90
2018-09-08T11:18:08.079Z,21.90
2018-09-08T11:23:12.256Z,21.30
2018-09-08T11:28:16.477Z,21.60
2018-09-08T11:33:20.654Z,21.10
2018-09-08T11:38:24.879Z,22.40
2018-09-08T11:43:29.001Z,22.10
2018-09-08T11:48:33.462Z,21.00
2018-09-08T11:53:37.668Z,22.40
2018-09-08T11:58:41.929Z,21.80
2018-09-08T12:03:46.359Z,22.10
2018-09-08T12:08:50.829Z,22.90
2018-09-08T12:13:55.047Z,23.50
2018-09-08T12:18:59.283Z,23.30
2018-09-08T12:24:03.565Z,22.30
2018-09-08T12:29:07.715Z,21.50
2018-09-08T12:34:11.889Z,23.60
2018-09-08T12:39:16.035Z,24.50
2018-09-08T12:44:20.301Z,23.00
2018-09-08T12:49:24.617Z,23.30
2018-09-08T12:54:28.851Z,23.40
2018-09-08T12:59:33.145Z,23.60
2018-09-08T13:04:37.326Z,24.70
2018-09-08T13:09:41.532Z,24.30
2018-09-08T13:14:45.788Z,24.20
2018-09-08T13:19:50.070Z,24.40
2018-09-08T13:24:54.272Z,23.70
2018-09-08T13:29:58.468Z,24.00
2018-09-08T13:35:02.749Z,23.90
2018-09-08T13:40:06.885Z,22.80
2018-09-08T13:45:11.096Z,22.20
2018-09-08T13:50:15.322Z,23.10
2018-09-08T13:55:19.525Z,24.10
2018-09-08T14:00:23.750Z,23.20
2018-09-08T14:05:28.007Z,22.80
2018-09-08T14:10:32.189Z,23.40
2018-09-08T14:15:36.397Z,22.60
2018-09-08T14:20:40.604Z,23.20
2018-09-08T14:25:44.775Z,22.70
2018-09-08T14:30:49.001Z,22.30
2018-09-08T14:35:53.226Z,21.90
2018-09-08T14:40:57.563Z,22.80
2018-09-08T14:46:02.376Z,22.50
2018-09-08T14:51:06.534Z,22.50
2018-09-08T14:56:10.768Z,22.40
2018-09-08T15:01:14.939Z,22.60
2018-09-08T15:06:19.200Z,22.00
2018-09-08T15:11:23.390Z,21.70
2018-09-08T15:16:27.563Z,21.70
2018-09-08T15:21:31.789Z,21.80
2018-09-08T15:26:36.136Z,22.20
2018-09-08T15:31:40.176Z,22.00
2018-09-08T15:36:44.367Z,22.10
2018-09-08T15:41:48.595Z,21.60
2018-09-08T15:46:52.824Z,21.80
2018-09-08T15:51:57.152Z,21.70
2018-09-08T15:57:01.386Z,21.40
2018-09-08T16:02:05.476Z,21.40
2018-09-08T16:07:09.660Z,21.00
2018-09-08T16:12:13.868Z,20.90
2018-09-08T16:17:18.048Z,20.70
2018-09-08T16:22:22.275Z,20.70
2018-09-08T16:27:26.462Z,20.50
2018-09-08T16:32:30.690Z,20.90
2018-09-08T16:37:35.023Z,20.60
2018-09-08T16:42:39.190Z,20.50
2018-09-08T16:47:43.423Z,20.40
2018-09-08T16:52:47.656Z,20.60
2018-09-08T16:57:51.898Z,20.50
2018-09-08T17:02:56.093Z,20.50
2018-09-08T17:08:00.336Z,20.40
2018-09-08T17:13:04.510Z,20.20
2018-09-08T17:18:08.791Z,20.10
2018-09-08T17:23:13.016Z,20.20
2018-09-08T17:28:17.314Z,20.30
2018-09-08T17:33:21.483Z,20.20
2018-09-08T17:38:25.771Z,20.30
2018-09-08T17:43:29.993Z,20.20
2018-09-08T17:48:34.182Z,20.20
2018-09-08T17:53:38.517Z,20.30
2018-09-08T17:58:42.750Z,20.00
2018-09-08T18:03:48.299Z,20.00
2018-09-08T18:08:52.529Z,20.20
2018-09-08T18:13:56.700Z,20.00
2018-09-08T18:19:00.891Z,20.10
2018-09-08T18:24:05.023Z,20.00
2018-09-08T18:29:09.205Z,20.00
2018-09-08T18:34:13.400Z,20.00
2018-09-08T18:39:17.645Z,20.00
2018-09-08T18:44:21.883Z,20.10
2018-09-08T18:49:26.087Z,20.00
2018-09-08T18:54:30.460Z,19.90
2018-09-08T18:59:34.637Z,19.90
2018-09-08T19:04:38.811Z,19.80
2018-09-08T19:09:43.791Z,19.60
2018-09-08T19:14:53.196Z,19.80
2018-09-08T19:20:02.781Z,19.60
2018-09-08T19:25:06.948Z,19.40
2018-09-08T19:30:11.143Z,19.30
2018-09-08T19:35:20.808Z,19.20
2018-09-08T19:40:30.316Z,19.20
2018-09-08T19:45:34.809Z,19.20
2018-09-08T19:50:38.990Z,18.90
2018-09-08T19:55:43.259Z,18.70
2018-09-08T20:00:47.466Z,18.70
2018-09-08T20:05:51.639Z,18.80
2018-09-08T20:10:55.817Z,18.90
2018-09-08T20:16:00.037Z,18.90
2018-09-08T20:21:04.170Z,18.90
2018-09-08T20:26:08.361Z,18.80
2018-09-08T20:31:12.520Z,18.80
2018-09-08T20:36:16.682Z,18.70
2018-09-08T20:41:23.782Z,18.70
2018-09-08T20:46:28.011Z,18.60
2018-09-08T20:51:32.229Z,18.40
2018-09-08T20:56:36.418Z,18.60
2018-09-08T21:01:40.596Z,18.60
2018-09-08T21:06:44.870Z,18.60
2018-09-08T21:11:49.075Z,18.60
2018-09-08T21:16:53.299Z,18.50
2018-09-08T21:21:57.536Z,18.50
2018-09-08T21:27:01.871Z,18.40
2018-09-08T21:32:06.024Z,17.90
2018-09-08T21:37:10.232Z,18.00
2018-09-08T21:42:14.564Z,18.20
2018-09-08T21:47:18.879Z,18.30
2018-09-08T21:52:23.042Z,18.20
2018-09-08T21:57:27.238Z,18.10
2018-09-08T22:02:31.463Z,18.10
2018-09-08T22:07:36.034Z,18.00
2018-09-08T22:12:40.254Z,18.10
2018-09-08T22:17:44.420Z,18.10
2018-09-08T22:22:48.869Z,18.00
2018-09-08T22:27:53.075Z,18.10
2018-09-08T22:32:57.287Z,17.70
2018-09-08T22:38:01.493Z,17.60
2018-09-08T22:43:05.862Z,17.60
2018-09-08T22:48:10.080Z,17.80
2018-09-08T22:53:14.298Z,17.90
2018-09-08T22:58:18.818Z,17.80
2018-09-08T23:03:22.992Z,17.80
2018-09-08T23:08:27.181Z,17.80
2018-09-08T23:13:31.407Z,17.80
2018-09-08T23:18:35.659Z,17.70
2018-09-08T23:23:39.825Z,17.60
2018-09-08T23:28:43.987Z,17.60
2018-09-08T23:33:48.151Z,17.60
2018-09-08T23:38:52.388Z,17.50
2018-09-08T23:43:56.650Z,17.50
2018-09-08T23:49:00.856Z,17.40
2018-09-08T23:54:04.973Z,17.40
2018-09-08T23:59:09.193Z,17.30
